Monticello, FL

3:27 AM EST on March 03, 2015 (GMT -0500)
FL_Meso Monticello FAWN | Change Station
CLOSE
Current Station
Personal Weather Station
Location: Monticello, FL
Elevation: 180 ft
Nearby Weather Stations
Active Advisory: Dense Fog Advisory

Elev 180 ft 30.54 °N, 83.92 °W | Updated 27 minutes ago

Overcast
Overcast
56 °F
Feels Like 56 °F
N
1
Wind Variable Wind from SSE
Gusts 0.0 mph

Today
High -- | Low -- °F
--% Chance of Precip.
Yesterday
High -- | Low -- °F
Precip. -- in
6:59 AM 6:35 PM
Waxing Gibbous, 95% visible
Pressure 30.21 in
Visibility 4.0 miles
Clouds Mostly Cloudy 200 ft
Dew Point 56 °F
Humidity 99%
Rainfall -999.00 in
Snow Depth Not available.
UV 0 out of 12
Pollen 7.50 out of 12
Air Quality Not available.
Flu Activity Not available.
METAR KTVI 030715Z AUTO 00000KT 4SM BR BKN002 13/13 A3021 RMK AO2

More Conditions Fewer Conditions

Pressure 30.21 in
Visibility 4.0 miles
Clouds Mostly Cloudy 200 ft
Dew Point 56 °F
Humidity 99%
Rainfall -999.00 in
Snow Depth Not available.
UV 0 out of 12
Pollen 7.50 out of 12
Air Quality Not available.
Flu Activity Not available.
METAR KTVI 030715Z AUTO 00000KT 4SM BR BKN002 13/13 A3021 RMK AO2

More Conditions Fewer Conditions

10-Day Weather Forecast

Almanac

Astronomy

Mar. 03, 2015 Rise Set
Actual Time
Civil Twilight
Nautical Twilight
Astronomical Twilight
Moon
Length of Visible Light
Length of Day
Tomorrow will be .
, % of the Moon is Illuminated

Today's Extremes

State Highs State Lows

Community

WunderPhotos

Upload Photos

1,802,075 photos uploaded!

WunderBlogs® & News

Nearby

Air Quality

  Air Quality AQ Index Pollutant
Not available.

Snow Depth

Station Depth Elevation

Earthquake Activity

City Distance Mag. Time & Date
Minimum magnitude displayed is 2.5.

Coastal Water Temperatures

Place Temperature

Nearby Weather Stations

Dense Fog Advisory
Statement as of 12:32 AM CST on March 03, 2015

... Dense fog advisory in effect until 10 am EST /9 am CST/ this
morning...

The National Weather Service in Tallahassee has issued a dense
fog advisory... which is in effect until 10 am EST /9 am CST/ this
morning.

* Visibility... one quarter of a mile or less.

* Impacts... dense fog will create low visibilities during the
morning commute.

Precautionary/preparedness actions...

A dense fog advisory means visibilities will frequently be
reduced to less than one quarter mile. If driving... slow down...
use your low beam headlights... and leave plenty of distance ahead
of you.



Barry